Terminal Aerodrome Forecast
Issued by NWS

Home | Current Version | Previous Version | Text Only | Print | Product List | Glossary On
Versions: 1 2 3 4 5 6 7 8 9 10 11 12 13 14 15
000
FTUS43 KDLH 051120
TAFHIB
TAF
KHIB 051120Z 0512/0612 00000KT P6SM VCSH OVC090
     FM051300 20006KT P6SM SKC
     FM051600 24011G19KT P6SM SKC
     FM060100 25005KT P6SM SKC=

USA.gov is the U.S. government's official web portal to all federal, state and local government web resources and services.